Time;durP1;ratioP1;P1;durP2;ratioP2;P2;SDS_P1;SDS_P2;PMS_P1;PMS_P2;Temp;Humidity;BMP_temperature;BMP_pressure;BME280_temperature;BME280_humidity;BME280_pressure;Samples;Min_cycle;Max_cycle;Signal;HPM_P1;HPM_P2
2024/02/05 00:01:06;;;;;;;33.90;14.27;;;10.80;99.90;;;10.46;95.64;100872.03;5017975;28;20469;-81
2024/02/05 00:03:34;;;;;;;33.95;13.38;;;10.80;99.90;;;10.47;95.63;100877.16;5035008;28;20551;-81
2024/02/05 00:06:02;;;;;;;27.38;13.45;;;10.80;99.90;;;10.46;96.04;100874.72;5035823;28;20072;-80
2024/02/05 00:08:30;;;;;;;31.02;12.85;;;10.80;99.90;;;10.45;96.21;100876.56;5018385;28;20068;-80
2024/02/05 00:10:57;;;;;;;32.13;13.98;;;10.80;99.90;;;10.48;96.61;100889.47;5035920;28;20095;-80
2024/02/05 00:13:24;;;;;;;30.73;13.45;;;10.80;99.90;;;10.47;96.89;100882.50;5035764;28;20076;-80
2024/02/05 00:15:52;;;;;;;28.50;12.57;;;10.70;99.90;;;10.47;96.96;100879.00;5035370;28;20503;-80
2024/02/05 00:18:20;;;;;;;29.80;14.32;;;10.70;99.90;;;10.44;96.99;100890.91;5017676;28;20045;-80
2024/02/05 00:20:49;;;;;;;31.85;14.32;;;10.70;99.90;;;10.43;96.98;100889.25;5017863;28;20511;-80
2024/02/05 00:23:16;;;;;;;32.17;14.45;;;10.70;99.90;;;10.47;96.80;100887.00;5036006;28;20041;-80
2024/02/05 00:25:44;;;;;;;30.67;14.18;;;10.70;99.90;;;10.47;96.92;100890.50;5035377;28;20464;-80
2024/02/05 00:28:12;;;;;;;28.17;14.73;;;10.70;99.90;;;10.47;96.85;100881.69;5033826;28;20037;-80
2024/02/05 00:30:40;;;;;;;30.98;15.15;;;10.70;99.90;;;10.48;96.87;100888.66;5035765;28;20056;-80
2024/02/05 00:33:07;;;;;;;28.90;14.68;;;10.70;99.90;;;10.45;96.79;100889.88;5017946;28;20124;-80
2024/02/05 00:35:35;;;;;;;36.60;15.80;;;10.70;99.90;;;10.46;96.66;100893.38;5035297;28;20053;-80
2024/02/05 00:38:05;;;;;;;32.90;15.63;;;10.70;99.90;;;10.38;96.58;100883.69;5035393;28;20495;-80
2024/02/05 00:40:33;;;;;;;29.50;15.43;;;10.70;99.90;;;10.37;96.95;100886.56;5050192;28;20073;-81
2024/02/05 00:43:00;;;;;;;30.17;15.20;;;10.70;99.90;;;10.43;97.00;100885.75;5034864;28;20052;-81
2024/02/05 00:45:28;;;;;;;35.00;15.32;;;10.70;99.90;;;10.42;96.85;100878.78;5001575;28;20471;-81
2024/02/05 00:47:57;;;;;;;31.90;14.68;;;10.70;99.90;;;10.46;97.04;100888.84;5050585;28;20042;-80
2024/02/05 00:50:25;;;;;;;33.58;15.07;;;10.70;99.90;;;10.41;96.25;100879.81;5050388;28;20060;-81
2024/02/05 00:52:52;;;;;;;35.10;15.25;;;10.70;99.90;;;10.42;96.34;100889.47;5035105;28;20037;-81
2024/02/05 00:55:21;;;;;;;33.83;14.57;;;10.70;99.90;;;10.40;96.19;100879.00;5049931;28;20077;-81
2024/02/05 00:57:49;;;;;;;35.67;14.00;;;10.70;99.90;;;10.39;95.85;100879.19;5050693;28;20115;-81
2024/02/05 01:00:18;;;;;;;36.20;13.82;;;10.70;99.90;;;10.40;95.78;100875.50;5017195;28;20044;-81
2024/02/05 01:02:45;;;;;;;32.15;12.85;;;10.70;99.90;;;10.45;95.60;100884.56;5016654;28;20073;-81
2024/02/05 01:05:12;;;;;;;28.33;12.23;;;10.70;99.90;;;10.41;95.10;100877.97;5016854;28;20144;-81
2024/02/05 01:07:40;;;;;;;31.83;12.95;;;10.70;99.90;;;10.38;94.46;100886.34;5016929;28;20496;-81
2024/02/05 01:10:10;;;;;;;35.20;12.63;;;10.70;99.90;;;10.41;94.52;100882.47;5000121;28;20057;-80
2024/02/05 01:12:39;;;;;;;38.25;12.95;;;10.70;99.90;;;10.44;94.68;100879.41;5049288;28;20520;-80
2024/02/05 01:15:07;;;;;;;32.90;12.45;;;10.70;99.90;;;10.45;94.35;100873.06;5034104;28;20045;-81
2024/02/05 01:17:35;;;;;;;40.35;12.18;;;10.70;99.90;;;10.40;93.74;100876.34;5016101;28;20041;-81
2024/02/05 01:20:10;;;;;;;39.60;12.25;;;10.70;99.90;;;10.39;92.70;100885.31;5033822;28;20038;-81
2024/02/05 01:22:38;;;;;;;29.45;10.90;;;10.70;99.90;;;10.40;92.97;100871.00;5015472;28;20056;-81
2024/02/05 01:25:08;;;;;;;35.97;11.40;;;10.70;99.90;;;10.42;92.97;100873.47;5033609;28;20536;-81
2024/02/05 01:27:35;;;;;;;30.15;10.95;;;10.70;99.90;;;10.43;92.87;100877.75;5016445;28;20053;-81
2024/02/05 01:30:06;;;;;;;34.00;11.40;;;10.70;99.90;;;10.46;92.70;100874.72;5033515;28;20037;-81
2024/02/05 01:32:33;;;;;;;31.75;11.05;;;10.70;99.90;;;10.46;91.84;100869.38;5016082;28;20095;-81
2024/02/05 01:35:01;;;;;;;26.95;10.02;;;10.80;99.90;;;10.42;91.26;100866.28;5034229;28;20091;-81
2024/02/05 01:37:28;;;;;;;28.77;10.13;;;10.70;99.90;;;10.41;91.03;100867.31;5016217;28;20045;-81
2024/02/05 01:39:56;;;;;;;32.65;9.70;;;10.80;99.90;;;10.44;91.04;100874.06;5016022;28;20045;-81
2024/02/05 01:42:24;;;;;;;29.45;10.10;;;10.70;99.90;;;10.47;91.20;100863.00;5033866;28;20039;-81
2024/02/05 01:44:52;;;;;;;30.48;9.65;;;10.80;99.90;;;10.44;90.80;100871.41;5015914;28;20037;-81
2024/02/05 01:47:22;;;;;;;29.08;9.30;;;10.70;99.90;;;10.44;90.72;100876.72;5015580;28;20460;-81
2024/02/05 01:49:52;;;;;;;31.00;9.33;;;10.80;99.90;;;10.45;90.85;100867.72;5016329;28;20048;-81
2024/02/05 01:52:21;;;;;;;33.58;9.57;;;10.70;99.90;;;10.46;91.07;100872.84;5000215;28;20327;-81
2024/02/05 01:54:50;;;;;;;30.02;9.25;;;10.70;99.90;;;10.47;90.75;100868.34;5000390;28;20137;-81
2024/02/05 01:57:18;;;;;;;34.15;9.88;;;10.70;99.90;;;10.42;90.31;100852.13;4999932;28;20060;-81
2024/02/05 01:59:45;;;;;;;28.95;9.82;;;10.70;99.90;;;10.43;90.15;100846.59;5034526;28;20084;-81
2024/02/05 02:02:13;;;;;;;34.78;9.98;;;10.70;99.90;;;10.45;90.26;100862.41;5016526;28;20042;-81
2024/02/05 02:04:43;;;;;;;33.15;10.20;;;10.70;99.90;;;10.45;90.56;100859.75;5016897;28;20417;-81
2024/02/05 02:07:11;;;;;;;47.47;11.20;;;10.70;99.90;;;10.42;89.78;100854.78;5033961;28;20077;-81
2024/02/05 02:09:39;;;;;;;38.85;10.13;;;10.70;99.90;;;10.45;89.81;100859.75;4984396;28;20058;-81
2024/02/05 02:12:08;;;;;;;40.72;10.75;;;10.70;99.90;;;10.44;89.50;100866.91;5000472;28;20409;-81
2024/02/05 02:14:35;;;;;;;39.75;11.50;;;10.70;99.90;;;10.43;89.99;100865.25;5016309;28;20061;-81
2024/02/05 02:17:03;;;;;;;37.35;11.05;;;10.70;99.90;;;10.39;89.72;100863.19;5015684;28;20045;-81
2024/02/05 02:19:41;;;;;;;38.40;10.13;;;10.70;99.90;;;10.38;89.54;100861.53;5015891;28;20164;-81
2024/02/05 02:22:26;;;;;;;42.53;10.80;;;10.70;99.90;;;10.38;89.86;100861.53;5033797;28;20463;-81
2024/02/05 02:24:55;;;;;;;35.30;10.43;;;10.70;99.90;;;10.42;89.89;100868.94;5017455;28;20068;-81
2024/02/05 02:27:22;;;;;;;34.65;9.38;;;10.70;99.90;;;10.42;89.55;100863.63;5016287;28;20045;-81
2024/02/05 02:29:50;;;;;;;44.65;12.13;;;10.70;99.90;;;10.46;89.54;100861.38;5015679;28;20042;-81
2024/02/05 02:32:28;;;;;;;31.42;10.40;;;10.70;99.90;;;10.45;89.40;100865.06;5015584;28;20042;-81
2024/02/05 02:35:02;;;;;;;41.63;11.52;;;10.70;99.90;;;10.42;89.04;100858.28;5033558;28;20041;-81
2024/02/05 02:37:33;;;;;;;31.98;10.70;;;10.70;99.90;;;10.45;89.12;100867.72;5016522;28;20049;-81
2024/02/05 02:40:05;;;;;;;;;;;10.70;99.90;;;10.42;89.11;100871.59;5016740;28;20068;-81
2024/02/05 02:42:34;;;;;;;35.53;11.43;;;10.70;99.90;;;10.38;88.85;100866.88;5033939;28;20332;-80
2024/02/05 02:45:02;;;;;;;38.17;10.85;;;10.70;99.90;;;10.43;89.21;100872.44;5035939;28;20045;-80
2024/02/05 02:47:29;;;;;;;36.85;11.27;;;10.70;99.90;;;10.43;88.99;100873.25;5037544;28;20038;-80
2024/02/05 02:49:57;;;;;;;36.22;11.45;;;10.70;99.90;;;10.37;88.12;100866.06;5037491;28;20041;-80
2024/02/05 02:52:24;;;;;;;31.23;10.88;;;10.70;99.90;;;10.41;88.39;100864.63;5019260;28;20056;-80
2024/02/05 02:54:52;;;;;;;33.88;10.57;;;10.70;99.90;;;10.38;88.10;100873.03;5019779;28;20053;-80
2024/02/05 02:57:21;;;;;;;42.88;11.27;;;10.70;99.90;;;10.39;88.27;100868.50;5037692;28;20061;-81
2024/02/05 02:59:51;;;;;;;34.58;11.98;;;10.70;99.90;;;10.33;87.99;100878.13;5019758;28;20049;-81
2024/02/05 03:02:20;;;;;;;32.75;11.80;;;10.70;99.90;;;10.32;87.74;100877.31;5003550;28;20050;-81
2024/02/05 03:04:47;;;;;;;35.85;10.77;;;10.70;99.90;;;10.37;87.97;100874.06;5037355;28;20041;-81
2024/02/05 03:07:14;;;;;;;39.35;11.80;;;10.70;99.90;;;10.36;87.54;100871.59;5003269;28;20041;-81
2024/02/05 03:09:42;;;;;;;37.25;12.23;;;10.70;99.90;;;10.39;87.68;100880.00;5019726;28;20501;-81
2024/02/05 03:12:09;;;;;;;36.85;11.90;;;10.70;99.90;;;10.41;87.50;100874.47;5019008;28;20048;-81
2024/02/05 03:14:38;;;;;;;30.67;11.77;;;10.70;99.90;;;10.38;87.68;100872.22;5019696;28;20068;-81
2024/02/05 03:17:06;;;;;;;34.17;12.00;;;10.70;99.90;;;10.36;87.37;100872.41;5037074;28;20513;-81
2024/02/05 03:19:34;;;;;;;31.10;11.15;;;10.70;99.90;;;10.36;87.44;100869.75;5037496;28;20040;-81
2024/02/05 03:22:02;;;;;;;35.03;11.05;;;10.60;99.90;;;10.36;87.50;100877.75;5036860;28;20037;-81
2024/02/05 03:24:29;;;;;;;39.03;12.18;;;10.60;99.90;;;10.37;87.59;100876.72;5019878;28;20047;-81
2024/02/05 03:26:59;;;;;;;37.35;11.25;;;10.60;99.90;;;10.38;87.34;100875.69;5037077;28;20072;-81
2024/02/05 03:29:27;;;;;;;43.67;12.63;;;10.60;99.90;;;10.40;86.91;100873.66;5003001;28;20099;-81
2024/02/05 03:31:56;;;;;;;29.77;10.88;;;10.60;99.90;;;10.37;86.64;100875.91;5002551;28;20147;-81
2024/02/05 03:34:24;;;;;;;33.42;10.63;;;10.60;99.90;;;10.31;86.52;100877.53;5019863;28;20095;-80
2024/02/05 03:36:52;;;;;;;41.33;11.40;;;10.60;99.90;;;10.32;86.27;100877.31;5018712;28;20041;-81
2024/02/05 03:39:20;;;;;;;37.47;11.43;;;10.60;99.90;;;10.36;86.50;100879.59;5018874;28;20056;-81
2024/02/05 03:41:47;;;;;;;38.72;10.90;;;10.60;99.90;;;10.35;86.04;100884.13;5018637;28;20045;-81
2024/02/05 03:44:14;;;;;;;34.08;10.60;;;10.60;99.90;;;10.29;86.36;100880.38;5036647;28;20120;-81
2024/02/05 03:46:42;;;;;;;37.13;11.05;;;10.60;99.90;;;10.33;86.22;100886.13;5019422;28;20058;-81
2024/02/05 03:49:11;;;;;;;37.72;11.30;;;10.60;99.90;;;10.36;86.38;100888.41;5018208;28;20136;-81
2024/02/05 03:51:39;;;;;;;51.90;12.10;;;10.60;99.90;;;10.35;86.00;100877.97;5018276;28;20037;-81
2024/02/05 03:54:07;;;;;;;35.35;11.23;;;10.60;99.90;;;10.34;86.05;100881.63;5036329;28;20083;-81
2024/02/05 03:56:35;;;;;;;35.30;11.23;;;10.60;99.90;;;10.32;85.96;100879.97;5036625;28;20045;-81
2024/02/05 03:59:02;;;;;;;34.42;11.25;;;10.60;99.90;;;10.30;85.43;100879.38;5036935;28;20049;-81
2024/02/05 04:01:30;;;;;;;43.65;11.38;;;10.60;99.90;;;10.29;85.39;100877.72;5018472;28;20095;-81
2024/02/05 04:03:58;;;;;;;40.45;11.13;;;10.60;99.90;;;10.27;84.87;100874.44;5036586;28;20045;-81
2024/02/05 04:06:27;;;;;;;34.85;10.52;;;10.60;99.90;;;10.32;85.34;100877.31;5036534;28;20076;-81
2024/02/05 04:08:56;;;;;;;44.60;11.15;;;10.60;99.90;;;10.32;84.88;100885.31;5018875;28;20053;-80
2024/02/05 04:11:23;;;;;;;42.90;11.98;;;10.60;99.90;;;10.31;85.07;100880.19;5018589;28;20069;-80
2024/02/05 04:13:51;;;;;;;32.25;11.23;;;10.60;99.90;;;10.26;85.23;100880.78;5002251;28;20046;-81
2024/02/05 04:16:19;;;;;;;37.05;12.07;;;10.60;99.90;;;10.29;85.01;100884.88;5036944;28;20048;-81
2024/02/05 04:18:46;;;;;;;39.38;11.77;;;10.60;99.90;;;10.27;84.97;100881.59;5018482;28;20049;-81
2024/02/05 04:21:16;;;;;;;37.65;11.57;;;10.60;99.90;;;10.27;84.61;100878.94;5018020;28;20132;-81
2024/02/05 04:23:47;;;;;;;36.60;11.52;;;10.60;99.90;;;10.27;84.59;100887.75;5018875;28;20500;-81
2024/02/05 04:26:16;;;;;;;41.05;11.02;;;10.60;99.90;;;10.30;84.95;100882.03;5036057;28;20095;-81
2024/02/05 04:28:44;;;;;;;35.58;10.68;;;10.60;99.90;;;10.28;84.38;100885.91;5036151;28;20107;-81
2024/02/05 04:31:12;;;;;;;39.95;11.65;;;10.60;99.90;;;10.28;84.39;100880.59;5018286;28;20045;-81
2024/02/05 04:33:40;;;;;;;42.67;11.48;;;10.60;99.90;;;10.28;84.45;100892.06;5035955;28;20049;-81
2024/02/05 04:36:12;;;;;;;35.08;11.40;;;10.60;99.90;;;10.30;84.39;100876.72;5001915;28;20121;-81
2024/02/05 04:38:40;;;;;;;35.40;11.27;;;10.60;99.90;;;10.26;84.25;100872.78;5002262;28;20052;-81
2024/02/05 04:41:11;;;;;;;38.70;11.65;;;10.60;99.90;;;10.28;84.20;100889.41;5001882;28;20416;-81
2024/02/05 04:43:40;;;;;;;33.22;11.23;;;10.50;99.90;;;10.24;84.40;100888.16;5036046;28;20045;-81
2024/02/05 04:46:10;;;;;;;41.03;12.25;;;10.60;99.90;;;10.23;84.26;100885.66;5018486;28;20059;-81
2024/02/05 04:48:38;;;;;;;38.25;12.15;;;10.60;99.90;;;10.22;84.28;100884.00;5036400;28;20431;-81
2024/02/05 04:51:11;;;;;;;39.85;11.93;;;10.50;99.90;;;10.20;84.24;100876.22;5017657;28;20072;-81
2024/02/05 04:53:39;;;;;;;38.45;12.52;;;10.60;99.90;;;10.16;84.12;100879.50;5035965;28;20052;-81
2024/02/05 04:56:08;;;;;;;41.15;12.30;;;10.50;99.90;;;10.21;84.42;100880.53;5017604;28;20042;-81
2024/02/05 04:58:35;;;;;;;39.28;11.32;;;10.50;99.90;;;10.21;83.89;100871.72;5017115;28;20049;-80
2024/02/05 05:01:03;;;;;;;47.50;11.18;;;10.60;99.90;;;10.23;83.77;100869.66;5051115;28;20045;-80
2024/02/05 05:03:31;;;;;;;39.05;11.00;;;10.60;99.90;;;10.24;83.98;100868.66;5035540;28;20088;-81
2024/02/05 05:05:59;;;;;;;41.13;11.07;;;10.50;99.90;;;10.23;83.43;100883.00;5002518;28;20053;-81
2024/02/05 05:08:27;;;;;;;39.00;10.93;;;10.50;99.90;;;10.20;83.33;100883.38;5035087;28;20088;-81
2024/02/05 05:10:54;;;;;;;38.45;11.13;;;10.50;99.90;;;10.24;83.25;100874.00;5018857;28;20045;-80
2024/02/05 05:13:24;;;;;;;47.00;11.05;;;10.50;99.90;;;10.26;83.44;100877.31;5052076;28;20136;-80
2024/02/05 05:15:51;;;;;;;39.95;11.07;;;10.60;99.90;;;10.26;83.06;100863.97;5035876;28;20042;-81
2024/02/05 05:18:19;;;;;;;33.72;11.52;;;10.50;99.90;;;10.22;82.91;100865.34;5017232;28;20508;-86
2024/02/05 05:20:47;;;;;;;33.60;10.90;;;10.50;99.90;;;10.23;83.27;100865.16;5017016;28;20046;-86
2024/02/05 05:23:16;;;;;;;42.10;11.32;;;10.50;99.90;;;10.20;82.84;100870.91;5034900;28;20092;-86
2024/02/05 05:25:44;;;;;;;40.90;11.73;;;10.50;99.90;;;10.20;82.80;100870.91;5034137;28;20029;-86
2024/02/05 05:28:11;;;;;;;40.83;11.70;;;10.50;99.90;;;10.23;82.73;100864.31;5016807;28;20060;-86
2024/02/05 05:30:40;;;;;;;36.67;11.25;;;10.50;99.90;;;10.13;81.77;100851.38;5000665;28;20128;-86
2024/02/05 05:33:08;;;;;;;40.03;11.90;;;10.50;99.90;;;10.17;82.40;100857.13;5016578;28;20112;-85
2024/02/05 05:35:35;;;;;;;33.63;11.25;;;10.50;99.90;;;10.20;82.68;100859.38;5034491;28;20120;-86
2024/02/05 05:38:03;;;;;;;43.97;11.02;;;10.50;99.90;;;10.10;82.13;100853.59;5033724;28;20049;-86
2024/02/05 05:40:30;;;;;;;38.28;11.10;;;10.50;99.90;;;10.14;82.30;100868.19;5033411;28;20050;-86
2024/02/05 05:42:58;;;;;;;38.97;12.32;;;10.50;99.90;;;10.15;81.68;100852.00;5016543;28;20132;-85
2024/02/05 05:45:27;;;;;;;45.42;11.70;;;10.50;99.90;;;10.17;81.84;100863.28;5000797;28;20045;-85
2024/02/05 05:47:56;;;;;;;32.42;11.85;;;10.50;99.90;;;10.23;82.17;100857.16;5034801;28;20590;-84
2024/02/05 05:50:23;;;;;;;36.75;12.77;;;10.50;99.90;;;10.20;82.02;100862.91;5017130;28;20108;-84
2024/02/05 05:52:51;;;;;;;37.10;10.68;;;10.50;99.90;;;10.21;82.03;100869.88;5016779;28;20501;-86
2024/02/05 05:55:20;;;;;;;34.35;10.35;;;10.50;99.90;;;10.24;82.47;100860.66;4967381;28;20057;-86
2024/02/05 05:57:48;;;;;;;36.92;11.20;;;10.50;99.90;;;10.18;81.77;100856.09;5016853;28;20099;-87
2024/02/05 06:00:17;;;;;;;31.33;10.60;;;10.40;99.90;;;10.13;81.65;100859.38;5015294;28;20133;-90
2024/02/05 06:02:45;;;;;;;28.17;9.57;;;10.40;99.90;;;10.11;81.92;100850.75;5015512;28;20052;-88
2024/02/05 06:05:14;;;;;;;36.22;9.50;;;10.40;99.90;;;10.14;82.08;100855.69;4998890;28;20424;-89
2024/02/05 06:07:43;;;;;;;38.22;10.05;;;10.40;99.90;;;10.06;81.56;100854.03;5033326;28;20500;-91
2024/02/05 06:10:10;;;;;;;40.58;9.18;;;10.40;99.90;;;10.09;81.47;100850.13;4966677;28;20045;-91
2024/02/05 06:12:39;;;;;;;39.97;10.40;;;10.40;99.90;;;10.13;81.91;100864.69;5048224;28;20064;-90
2024/02/05 06:15:09;;;;;;;32.63;10.13;;;10.40;99.90;;;10.09;81.26;100862.63;5015307;28;20057;-90
2024/02/05 06:17:36;;;;;;;36.85;9.77;;;10.40;99.90;;;10.05;81.22;100851.53;4983959;28;20048;-85
2024/02/05 06:20:07;;;;;;;36.63;9.45;;;10.40;99.90;;;10.02;81.12;100852.75;5040685;28;20080;-85
2024/02/05 06:22:36;;;;;;;36.58;9.30;;;10.40;99.90;;;10.08;81.63;100861.81;5022437;28;20068;-85
2024/02/05 06:25:05;;;;;;;31.95;8.88;;;10.40;99.90;;;10.10;81.60;100851.75;5023507;28;20045;-82
2024/02/05 06:27:33;;;;;;;31.13;8.45;;;10.40;99.90;;;10.09;81.52;100862.63;5024062;28;20045;-82
2024/02/05 06:30:00;;;;;;;27.50;7.72;;;10.40;99.90;;;10.04;81.44;100852.56;5056082;28;20063;-82
2024/02/05 06:32:28;;;;;;;37.17;9.50;;;10.40;99.90;;;10.06;81.77;100861.19;5036789;28;20042;-82
2024/02/05 06:34:55;;;;;;;36.55;8.75;;;10.40;99.90;;;10.10;82.04;100862.41;5057588;28;20049;-82
2024/02/05 06:37:23;;;;;;;45.53;8.32;;;10.40;99.90;;;10.15;81.85;100841.34;5036036;28;20072;-82
2024/02/05 06:39:52;;;;;;;31.90;7.68;;;10.40;99.90;;;10.19;81.77;100849.75;4972482;28;20088;-82
2024/02/05 06:42:21;;;;;;;42.95;8.15;;;10.40;99.90;;;10.17;81.73;100851.81;5030673;28;20128;-82
2024/02/05 06:44:50;;;;;;;35.65;7.45;;;10.40;99.90;;;10.14;81.13;100855.69;5024499;28;20076;-82
2024/02/05 06:47:18;;;;;;;27.02;7.35;;;10.40;99.90;;;10.12;81.29;100852.41;5022435;28;20402;-82
2024/02/05 06:49:48;;;;;;;31.60;7.38;;;10.40;99.90;;;10.16;81.36;100847.50;5041179;28;20053;-82
2024/02/05 06:52:16;;;;;;;30.17;7.70;;;10.40;99.90;;;10.10;81.55;100849.09;5041004;28;20042;-82
2024/02/05 06:54:44;;;;;;;34.65;7.95;;;10.40;99.90;;;10.07;81.24;100865.50;5041313;28;20065;-82
2024/02/05 06:57:13;;;;;;;29.83;6.68;;;10.30;99.90;;;10.01;81.46;100867.13;5056137;28;20124;-82
2024/02/05 06:59:41;;;;;;;28.52;7.15;;;10.30;99.90;;;10.05;81.14;100865.72;5056602;28;20571;-81
2024/02/05 07:02:09;;;;;;;35.63;7.00;;;10.30;99.90;;;10.07;80.83;100868.97;5022394;28;20053;-81
2024/02/05 07:04:36;;;;;;;34.50;7.75;;;10.30;99.90;;;10.04;80.59;100873.88;5040021;28;20077;-82
2024/02/05 07:07:04;;;;;;;29.80;8.48;;;10.30;99.90;;;10.05;80.73;100873.69;5006338;28;20050;-82
2024/02/05 07:09:31;;;;;;;31.40;7.60;;;10.30;99.90;;;10.04;80.55;100872.03;4973267;28;20041;-82
2024/02/05 07:11:59;;;;;;;38.25;7.40;;;10.30;99.90;;;10.01;80.49;100871.63;5054746;28;20120;-82
2024/02/05 07:14:28;;;;;;;25.05;6.85;;;10.30;99.90;;;10.01;81.00;100868.97;5038185;28;20044;-81
2024/02/05 07:16:55;;;;;;;36.67;8.90;;;10.30;99.90;;;10.00;81.42;100873.47;5003404;28;20122;-82
2024/02/05 07:19:23;;;;;;;29.73;7.03;;;10.30;99.90;;;10.01;81.18;100877.78;5020592;28;20048;-82
2024/02/05 07:21:50;;;;;;;32.00;7.38;;;10.30;99.90;;;9.98;81.18;100878.16;5020598;28;20492;-82
2024/02/05 07:24:18;;;;;;;33.53;7.15;;;10.30;99.90;;;10.05;80.89;100883.50;5019127;28;20093;-82
2024/02/05 07:26:46;;;;;;;26.55;6.60;;;10.30;99.90;;;10.05;80.79;100894.16;4954497;28;20092;-82
2024/02/05 07:29:13;;;;;;;31.67;6.55;;;10.30;99.90;;;10.08;80.43;100880.47;5003094;28;20052;-82
2024/02/05 07:31:42;;;;;;;30.58;6.63;;;10.30;99.90;;;10.05;80.36;100894.16;5038365;28;20073;-82
2024/02/05 07:34:10;;;;;;;29.85;7.28;;;10.30;99.90;;;10.05;80.12;100900.34;4989717;28;20132;-82
2024/02/05 07:36:37;;;;;;;37.95;7.25;;;10.30;99.90;;;10.06;80.36;100896.66;5021452;28;20119;-82
2024/02/05 07:39:08;;;;;;;30.27;7.43;;;10.30;99.90;;;10.04;80.00;100906.66;5021909;28;20571;-81
2024/02/05 07:41:35;;;;;;;33.17;7.83;;;10.30;99.90;;;9.95;79.53;100905.19;5039801;28;20416;-82
2024/02/05 07:44:03;;;;;;;38.65;7.10;;;10.20;99.90;;;9.97;79.77;100913.00;5021821;28;20045;-82
2024/02/05 07:46:31;;;;;;;30.52;6.05;;;10.30;99.90;;;9.99;79.99;100905.63;5022297;28;20069;-82
2024/02/05 07:49:00;;;;;;;30.95;6.75;;;10.30;99.90;;;9.97;79.87;100911.16;5039564;28;20073;-82
2024/02/05 07:51:27;;;;;;;30.20;6.88;;;10.20;99.90;;;9.98;79.94;100909.31;5039352;28;20053;-82
2024/02/05 07:53:55;;;;;;;33.72;6.72;;;10.20;99.90;;;9.96;79.97;100908.69;5039649;28;20047;-82
2024/02/05 07:56:22;;;;;;;22.05;6.43;;;10.20;99.90;;;9.99;79.89;100905.63;5021670;28;20057;-82
2024/02/05 07:58:50;;;;;;;34.55;6.88;;;10.30;99.90;;;10.01;79.59;100916.94;5021133;28;20099;-82
2024/02/05 08:01:19;;;;;;;31.10;6.75;;;10.30;99.90;;;9.99;79.64;100900.28;5040016;28;20060;-82
2024/02/05 08:03:46;;;;;;;36.70;6.95;;;10.30;99.90;;;10.01;79.55;100911.59;5021572;28;20065;-82
2024/02/05 08:06:21;;;;;;;27.13;6.43;;;10.30;99.90;;;9.99;79.51;100916.28;5021114;28;20083;-82
2024/02/05 08:08:48;;;;;;;30.63;6.53;;;10.30;99.90;;;10.00;79.84;100912.59;5021195;28;20041;-82
2024/02/05 08:11:17;;;;;;;36.22;7.28;;;10.30;99.90;;;10.01;79.45;100916.94;5021721;28;20045;-82
2024/02/05 08:13:44;;;;;;;33.15;6.75;;;10.30;99.90;;;10.00;79.56;100920.59;5039604;28;20038;-82
2024/02/05 08:16:11;;;;;;;32.25;7.15;;;10.30;99.90;;;9.96;79.21;100917.50;5039099;28;20045;-82
2024/02/05 08:18:40;;;;;;;25.67;6.97;;;10.30;99.90;;;9.96;79.03;100914.03;5039562;28;20042;-82
2024/02/05 08:21:07;;;;;;;30.08;6.35;;;10.20;99.90;;;10.01;79.36;100915.09;5038985;28;20052;-82
2024/02/05 08:23:38;;;;;;;29.13;6.75;;;10.30;99.90;;;10.01;78.83;100917.75;5039801;28;20049;-82
2024/02/05 08:26:05;;;;;;;33.28;7.47;;;10.30;99.90;;;10.01;78.79;100915.09;5021608;28;20068;-82
2024/02/05 08:28:33;;;;;;;29.45;6.55;;;10.30;99.90;;;10.02;78.59;100918.56;5020921;28;20571;-82
2024/02/05 08:31:00;;;;;;;30.38;6.93;;;10.30;99.90;;;9.99;78.83;100916.28;5038484;28;20412;-82
2024/02/05 08:33:30;;;;;;;30.60;7.32;;;10.30;99.90;;;9.94;78.77;100910.72;5038393;28;20048;-82
2024/02/05 08:35:58;;;;;;;32.50;7.05;;;10.30;99.90;;;9.96;78.74;100912.19;5053323;28;20053;-82
2024/02/05 08:38:26;;;;;;;24.92;5.78;;;10.30;99.90;;;9.99;79.07;100921.59;5020510;28;20061;-82
2024/02/05 08:40:56;;;;;;;28.95;6.47;;;10.30;99.90;;;10.00;78.95;100907.25;5020449;28;20037;-81
2024/02/05 08:43:23;;;;;;;34.97;7.47;;;10.20;99.90;;;9.99;78.57;100906.44;5002928;28;20070;-82
2024/02/05 08:45:51;;;;;;;34.58;6.65;;;10.30;99.90;;;10.01;78.80;100899.09;4987674;28;20089;-82
2024/02/05 08:48:19;;;;;;;35.17;6.93;;;10.30;99.90;;;9.94;78.99;100900.06;5020680;28;20069;-82
2024/02/05 08:50:47;;;;;;;29.13;6.47;;;10.30;99.90;;;10.00;78.90;100902.78;5038348;28;20080;-82
2024/02/05 08:53:15;;;;;;;25.23;6.35;;;10.30;99.90;;;10.04;79.02;100895.19;5020079;28;20083;-82
2024/02/05 08:55:42;;;;;;;25.20;6.43;;;10.30;99.90;;;10.07;78.90;100897.47;5037356;28;20124;-82
2024/02/05 08:58:11;;;;;;;26.33;6.47;;;10.40;99.90;;;10.06;78.60;100901.16;5019910;28;20117;-83
2024/02/05 09:00:39;;;;;;;36.50;7.82;;;10.40;99.90;;;10.08;78.76;100909.78;5019507;28;20041;-82
2024/02/05 09:03:06;;;;;;;35.33;6.22;;;10.40;99.90;;;10.09;78.97;100898.09;5036882;28;20048;-82
2024/02/05 09:05:33;;;;;;;26.90;6.70;;;10.50;99.90;;;9.99;78.68;100897.63;5036816;28;20096;-82
2024/02/05 09:08:01;;;;;;;47.63;7.60;;;10.40;99.90;;;10.05;78.99;100908.34;5036763;28;20056;-82
2024/02/05 09:10:29;;;;;;;31.67;6.35;;;10.40;99.90;;;10.09;78.19;100906.09;5019253;28;20044;-82
2024/02/05 09:12:57;;;;;;;33.88;7.50;;;10.40;99.90;;;10.06;78.73;100906.50;5019092;28;20061;-82
2024/02/05 09:15:26;;;;;;;30.20;6.82;;;10.40;99.90;;;10.10;78.66;100893.56;5036814;28;20042;-82
2024/02/05 09:17:53;;;;;;;32.13;7.30;;;10.50;99.90;;;10.17;78.59;100899.78;5037062;28;20041;-82
2024/02/05 09:20:21;;;;;;;28.55;7.20;;;10.50;99.90;;;10.19;78.75;100887.88;4985840;28;20049;-82
2024/02/05 09:22:49;;;;;;;31.58;6.85;;;10.60;99.90;;;10.22;78.17;100895.50;5018655;28;20563;-82
2024/02/05 09:25:17;;;;;;;36.97;6.55;;;10.50;99.90;;;10.22;77.89;100887.50;5018984;28;20080;-82
2024/02/05 09:27:45;;;;;;;31.25;7.28;;;10.50;99.90;;;10.20;77.68;100886.88;5051897;28;20045;-82
2024/02/05 09:30:13;;;;;;;31.67;7.00;;;10.60;99.90;;;10.24;77.89;100872.16;5018775;28;20057;-82
2024/02/05 09:32:43;;;;;;;30.42;6.78;;;10.60;99.90;;;10.23;78.04;100886.47;5036305;28;20049;-82
2024/02/05 09:35:10;;;;;;;25.92;6.97;;;10.60;99.90;;;10.25;77.69;100883.66;5036797;28;20064;-82
2024/02/05 09:37:37;;;;;;;35.75;7.32;;;10.60;99.90;;;10.22;77.43;100895.50;5019596;28;20045;-82
2024/02/05 09:40:07;;;;;;;31.98;6.68;;;10.60;99.90;;;10.22;77.49;100890.16;5002081;28;20401;-82
2024/02/05 09:42:35;;;;;;;24.60;6.47;;;10.60;99.90;;;10.12;77.16;100891.56;5051467;28;20046;-84
2024/02/05 09:45:04;;;;;;;35.20;7.45;;;10.50;99.90;;;10.12;77.60;100884.38;5017592;28;20535;-83
2024/02/05 09:47:32;;;;;;;26.10;6.22;;;10.50;99.90;;;10.19;77.83;100874.56;5018554;28;20055;-83
2024/02/05 09:50:03;;;;;;;36.22;6.22;;;10.60;99.90;;;10.24;77.65;100882.81;5017862;28;20056;-83
2024/02/05 09:52:32;;;;;;;31.75;6.38;;;10.60;99.90;;;10.19;76.61;100879.88;5036440;28;20052;-83
2024/02/05 09:55:00;;;;;;;33.97;6.70;;;10.60;99.90;;;10.26;77.35;100874.63;5024600;28;20050;-83
2024/02/05 09:57:30;;;;;;;30.85;7.47;;;10.60;99.90;;;10.27;77.32;100889.59;5020532;28;20049;-83
2024/02/05 09:59:57;;;;;;;41.30;6.78;;;10.60;99.90;;;10.25;76.74;100876.47;5002985;28;20124;-83
2024/02/05 10:02:26;;;;;;;38.70;7.95;;;10.60;99.90;;;10.19;76.59;100879.06;5002909;28;20042;-83
2024/02/05 10:04:57;;;;;;;26.45;6.53;;;10.60;99.90;;;10.15;76.80;100876.00;5019395;28;20436;-83
2024/02/05 10:07:30;;;;;;;29.98;7.38;;;10.50;99.90;;;10.23;77.27;100873.16;5054940;28;20049;-83